KVYS/VYS METAR and TAF weather

Enter ICAO airport designator
Station Type Date Time Source
KVYS METAR 2021/09/27 07:15 UTC NOAA

KVYS 270715Z AUTO 21013KT 10SM CLR 22/14 A2980 RMK AO2 T02150140


Station Type Date Time Source
KVYS Decoded METAR 2021/09/27 07:15 UTC NOAA

Peru, Illinois Valley Regional-Walter A Duncan Field Airport, IL, United States (KVYS) 41-21-07N 089-09-11W
Sep 27, 2021 - 03:15 AM EDT / 2021.09.27 0715 UTC
Wind: from the SSW (210 degrees) at 15 MPH (13 KT):0
Visibility: 10 mile(s):0
Sky conditions: clear
Temperature: 70.7 F (21.5 C)
Dew Point: 57.2 F (14.0 C)
Relative Humidity: 62%
Pressure (altimeter): 29.8 in. Hg (1009 hPa)
ob: KVYS 270715Z AUTO 21013KT 10SM CLR 22/14 A2980 RMK AO2 T02150140
cycle: 7

Station Type Date Time Source
KVYS TAF UTC NOAA

Error!

Example: see airport list